createdAt,value
2023-03-20T00:00:56.000Z,11.06
2023-03-20T00:01:56.000Z,11.03
2023-03-20T00:02:56.000Z,11.05
2023-03-20T00:03:56.000Z,11.05
2023-03-20T00:04:56.000Z,11.05
2023-03-20T00:05:56.000Z,11.03
2023-03-20T00:06:56.000Z,11.01
2023-03-20T00:07:56.000Z,11.05
2023-03-20T00:08:56.000Z,11.03
2023-03-20T00:09:56.000Z,11.01
2023-03-20T00:10:56.000Z,11.03
2023-03-20T00:11:56.000Z,11.05
2023-03-20T00:12:56.000Z,11.06
2023-03-20T00:13:56.000Z,11.05
2023-03-20T00:14:56.000Z,11.05
2023-03-20T00:15:56.000Z,11.05
2023-03-20T00:16:56.000Z,11.05
2023-03-20T00:17:56.000Z,11.02
2023-03-20T00:18:56.000Z,11.05
2023-03-20T00:19:56.000Z,11.03
2023-03-20T00:20:56.000Z,11.02
2023-03-20T00:21:56.000Z,11.02
2023-03-20T00:22:56.000Z,11.01
2023-03-20T00:23:56.000Z,11.01
2023-03-20T00:24:56.000Z,10.99
2023-03-20T00:25:56.000Z,10.99
2023-03-20T00:26:56.000Z,10.95
2023-03-20T00:27:56.000Z,10.93
2023-03-20T00:28:56.000Z,10.91
2023-03-20T00:29:56.000Z,10.91
2023-03-20T00:30:56.000Z,10.88
2023-03-20T00:31:56.000Z,10.86
2023-03-20T00:32:56.000Z,10.86
2023-03-20T00:33:55.000Z,10.83
2023-03-20T00:34:55.000Z,10.81
2023-03-20T00:35:55.000Z,10.78
2023-03-20T00:36:55.000Z,10.78
2023-03-20T00:37:55.000Z,10.73
2023-03-20T00:38:55.000Z,10.70
2023-03-20T00:39:55.000Z,10.69
2023-03-20T00:40:55.000Z,10.66
2023-03-20T00:41:55.000Z,10.60
2023-03-20T00:42:55.000Z,10.60
2023-03-20T00:43:55.000Z,10.54
2023-03-20T00:44:55.000Z,10.52
2023-03-20T00:45:55.000Z,10.46
2023-03-20T00:46:55.000Z,10.43
2023-03-20T00:47:55.000Z,10.38
2023-03-20T00:48:55.000Z,10.38
2023-03-20T00:49:55.000Z,10.32
2023-03-20T00:50:55.000Z,10.31
2023-03-20T00:51:55.000Z,10.26
2023-03-20T00:52:55.000Z,10.28
2023-03-20T00:53:55.000Z,10.25
2023-03-20T00:54:55.000Z,10.28
2023-03-20T00:55:55.000Z,10.22
2023-03-20T00:56:55.000Z,10.18
2023-03-20T00:57:55.000Z,10.18
2023-03-20T00:58:55.000Z,10.17
2023-03-20T00:59:55.000Z,10.14
2023-03-20T01:00:55.000Z,10.16
2023-03-20T01:01:55.000Z,10.16
2023-03-20T01:02:55.000Z,10.13
2023-03-20T01:03:55.000Z,10.13
2023-03-20T01:04:55.000Z,10.11
2023-03-20T01:05:55.000Z,10.13
2023-03-20T01:06:55.000Z,10.13
2023-03-20T01:07:55.000Z,10.16
2023-03-20T01:08:55.000Z,10.16
2023-03-20T01:09:55.000Z,10.16
2023-03-20T01:10:55.000Z,10.16
2023-03-20T01:11:55.000Z,10.17
2023-03-20T01:12:55.000Z,10.17
2023-03-20T01:13:55.000Z,10.17
2023-03-20T01:14:55.000Z,10.17
2023-03-20T01:15:55.000Z,10.18
2023-03-20T01:16:55.000Z,10.18
2023-03-20T01:17:55.000Z,10.24
2023-03-20T01:18:55.000Z,10.22
2023-03-20T01:19:55.000Z,10.24
2023-03-20T01:20:55.000Z,10.22
2023-03-20T01:21:55.000Z,10.24
2023-03-20T01:22:55.000Z,10.25
2023-03-20T01:23:55.000Z,10.26
2023-03-20T01:24:55.000Z,10.28
2023-03-20T01:25:55.000Z,10.28
2023-03-20T01:26:55.000Z,10.28
2023-03-20T01:27:55.000Z,10.29
2023-03-20T01:28:55.000Z,10.31
2023-03-20T01:29:55.000Z,10.29
2023-03-20T01:30:55.000Z,10.32
2023-03-20T01:31:55.000Z,10.31
2023-03-20T01:32:55.000Z,10.34
2023-03-20T01:33:55.000Z,10.32
2023-03-20T01:34:55.000Z,10.32
2023-03-20T01:35:55.000Z,10.29
2023-03-20T01:36:55.000Z,10.32
2023-03-20T01:37:55.000Z,10.32
2023-03-20T01:38:55.000Z,10.31
2023-03-20T01:39:55.000Z,10.31
2023-03-20T01:40:55.000Z,10.32
2023-03-20T01:41:55.000Z,10.34
2023-03-20T01:42:55.000Z,10.34
2023-03-20T01:43:55.000Z,10.32
2023-03-20T01:44:55.000Z,10.35
2023-03-20T01:45:55.000Z,10.35
2023-03-20T01:46:55.000Z,10.36
2023-03-20T01:47:55.000Z,10.38
2023-03-20T01:48:55.000Z,10.36
2023-03-20T01:49:55.000Z,10.36
2023-03-20T01:50:55.000Z,10.34
2023-03-20T01:51:55.000Z,10.36
2023-03-20T01:52:55.000Z,10.34
2023-03-20T01:53:55.000Z,10.32
2023-03-20T01:54:55.000Z,10.34
2023-03-20T01:55:55.000Z,10.34
2023-03-20T01:56:55.000Z,10.32
2023-03-20T01:57:55.000Z,10.28
2023-03-20T01:58:55.000Z,10.29
2023-03-20T01:59:55.000Z,10.25
2023-03-20T02:00:55.000Z,10.25
2023-03-20T02:01:55.000Z,10.26
2023-03-20T02:02:55.000Z,10.28
2023-03-20T02:03:55.000Z,10.24
2023-03-20T02:04:55.000Z,10.26
2023-03-20T02:05:55.000Z,10.24
2023-03-20T02:06:55.000Z,10.22
2023-03-20T02:07:55.000Z,10.25
2023-03-20T02:08:55.000Z,10.25
2023-03-20T02:09:55.000Z,10.25
2023-03-20T02:10:55.000Z,10.24
2023-03-20T02:11:55.000Z,10.24
2023-03-20T02:12:55.000Z,10.20
2023-03-20T02:13:55.000Z,10.24
2023-03-20T02:14:55.000Z,10.22
2023-03-20T02:15:54.000Z,10.22
2023-03-20T02:16:54.000Z,10.22
2023-03-20T02:17:54.000Z,10.22
2023-03-20T02:18:54.000Z,10.26
2023-03-20T02:19:54.000Z,10.25
2023-03-20T02:20:54.000Z,10.25
2023-03-20T02:21:54.000Z,10.26
2023-03-20T02:22:54.000Z,10.28
2023-03-20T02:23:54.000Z,10.28
2023-03-20T02:24:54.000Z,10.25
2023-03-20T02:25:54.000Z,10.24
2023-03-20T02:26:54.000Z,10.25
2023-03-20T02:27:54.000Z,10.22
2023-03-20T02:28:54.000Z,10.22
2023-03-20T02:29:54.000Z,10.20
2023-03-20T02:30:54.000Z,10.22
2023-03-20T02:31:54.000Z,10.20
2023-03-20T02:32:54.000Z,10.20
2023-03-20T02:33:54.000Z,10.20
2023-03-20T02:34:54.000Z,10.18
2023-03-20T02:35:54.000Z,10.18
2023-03-20T02:36:54.000Z,10.17
2023-03-20T02:37:54.000Z,10.16
2023-03-20T02:38:54.000Z,10.17
2023-03-20T02:39:54.000Z,10.14
2023-03-20T02:40:54.000Z,10.13
2023-03-20T02:41:54.000Z,10.11
2023-03-20T02:42:54.000Z,10.09
2023-03-20T02:43:54.000Z,10.10
2023-03-20T02:44:54.000Z,10.07
2023-03-20T02:45:54.000Z,10.07
2023-03-20T02:46:54.000Z,10.06
2023-03-20T02:47:54.000Z,10.04
2023-03-20T02:48:54.000Z,10.01
2023-03-20T02:49:54.000Z,9.98
2023-03-20T02:50:54.000Z,9.96
2023-03-20T02:51:54.000Z,9.95
2023-03-20T02:52:54.000Z,9.93
2023-03-20T02:53:54.000Z,9.92
2023-03-20T02:54:54.000Z,9.95
2023-03-20T02:55:54.000Z,9.96
2023-03-20T02:56:54.000Z,9.96
2023-03-20T02:57:54.000Z,9.95
2023-03-20T02:58:54.000Z,9.95
2023-03-20T02:59:54.000Z,9.93
2023-03-20T03:00:54.000Z,9.96
2023-03-20T03:01:54.000Z,9.92
2023-03-20T03:02:54.000Z,9.92
2023-03-20T03:03:54.000Z,9.92
2023-03-20T03:04:54.000Z,9.92
2023-03-20T03:05:54.000Z,9.89
2023-03-20T03:06:54.000Z,9.88
2023-03-20T03:07:54.000Z,9.89
2023-03-20T03:08:54.000Z,9.91
2023-03-20T03:09:54.000Z,9.89
2023-03-20T03:10:54.000Z,9.86
2023-03-20T03:11:54.000Z,9.85
2023-03-20T03:12:54.000Z,9.85
2023-03-20T03:13:54.000Z,9.85
2023-03-20T03:14:54.000Z,9.83
2023-03-20T03:15:54.000Z,9.83
2023-03-20T03:16:54.000Z,9.85
2023-03-20T03:17:54.000Z,9.83
2023-03-20T03:18:54.000Z,9.81
2023-03-20T03:19:54.000Z,9.83
2023-03-20T03:20:54.000Z,9.85
2023-03-20T03:21:54.000Z,9.85
2023-03-20T03:22:54.000Z,9.86
2023-03-20T03:23:54.000Z,9.88
2023-03-20T03:24:54.000Z,9.85
2023-03-20T03:25:54.000Z,9.86
2023-03-20T03:26:54.000Z,9.88
2023-03-20T03:27:54.000Z,9.86
2023-03-20T03:28:54.000Z,9.89
2023-03-20T03:29:54.000Z,9.91
2023-03-20T03:30:54.000Z,9.91
2023-03-20T03:31:54.000Z,9.91
2023-03-20T03:32:54.000Z,9.92
2023-03-20T03:33:54.000Z,9.93
2023-03-20T03:34:54.000Z,9.95
2023-03-20T03:35:54.000Z,9.93
2023-03-20T03:36:54.000Z,9.96
2023-03-20T03:37:54.000Z,9.98
2023-03-20T03:38:54.000Z,9.96
2023-03-20T03:39:54.000Z,9.98
2023-03-20T03:40:54.000Z,9.95
2023-03-20T03:41:54.000Z,9.96
2023-03-20T03:42:54.000Z,9.98
2023-03-20T03:43:54.000Z,9.99
2023-03-20T03:44:54.000Z,9.99
2023-03-20T03:45:54.000Z,10.02
2023-03-20T03:46:54.000Z,10.02
2023-03-20T03:47:54.000Z,10.04
2023-03-20T03:48:54.000Z,10.02
2023-03-20T03:49:54.000Z,10.02
2023-03-20T03:50:54.000Z,9.98
2023-03-20T03:51:54.000Z,10.01
2023-03-20T03:52:54.000Z,9.98
2023-03-20T03:53:54.000Z,9.95
2023-03-20T03:54:54.000Z,9.93
2023-03-20T03:55:54.000Z,9.93
2023-03-20T03:56:54.000Z,9.93
2023-03-20T03:57:54.000Z,9.93
2023-03-20T03:58:53.000Z,9.91
2023-03-20T03:59:53.000Z,9.92
2023-03-20T04:00:53.000Z,9.91
2023-03-20T04:01:53.000Z,9.89
2023-03-20T04:02:53.000Z,9.91
2023-03-20T04:03:53.000Z,9.91
2023-03-20T04:04:53.000Z,9.91
2023-03-20T04:05:53.000Z,9.91
2023-03-20T04:06:53.000Z,9.89
2023-03-20T04:07:53.000Z,9.92
2023-03-20T04:08:53.000Z,9.91
2023-03-20T04:09:53.000Z,9.89
2023-03-20T04:10:53.000Z,9.91
2023-03-20T04:11:53.000Z,9.89
2023-03-20T04:12:53.000Z,9.88
2023-03-20T04:13:53.000Z,9.88
2023-03-20T04:14:53.000Z,9.85
2023-03-20T04:15:53.000Z,9.85
2023-03-20T04:16:53.000Z,9.81
2023-03-20T04:17:53.000Z,9.78
2023-03-20T04:18:53.000Z,9.75
2023-03-20T04:19:53.000Z,9.77
2023-03-20T04:20:53.000Z,9.77
2023-03-20T04:21:53.000Z,9.77
2023-03-20T04:22:53.000Z,9.77
2023-03-20T04:23:53.000Z,9.77
2023-03-20T04:24:53.000Z,9.75
2023-03-20T04:25:53.000Z,9.75
2023-03-20T04:26:53.000Z,9.77
2023-03-20T04:27:53.000Z,9.75
2023-03-20T04:28:53.000Z,9.74
2023-03-20T04:29:53.000Z,9.75
2023-03-20T04:30:53.000Z,9.75
2023-03-20T04:31:53.000Z,9.74
2023-03-20T04:32:53.000Z,9.75
2023-03-20T04:33:53.000Z,9.78
2023-03-20T04:34:53.000Z,9.81
2023-03-20T04:35:53.000Z,9.81
2023-03-20T04:36:53.000Z,9.83
2023-03-20T04:37:53.000Z,9.88
2023-03-20T04:38:53.000Z,9.89
2023-03-20T04:39:53.000Z,9.89
2023-03-20T04:40:53.000Z,9.91
2023-03-20T04:41:53.000Z,9.91
2023-03-20T04:42:53.000Z,9.91
2023-03-20T04:43:53.000Z,9.91
2023-03-20T04:44:53.000Z,9.92
2023-03-20T04:45:53.000Z,9.91
2023-03-20T04:46:53.000Z,9.91
2023-03-20T04:47:53.000Z,9.92
2023-03-20T04:48:53.000Z,9.92
2023-03-20T04:49:53.000Z,9.91
2023-03-20T04:50:53.000Z,9.89
2023-03-20T04:51:53.000Z,9.91
2023-03-20T04:52:53.000Z,9.92
2023-03-20T04:53:53.000Z,9.93
2023-03-20T04:54:53.000Z,9.96
2023-03-20T04:55:53.000Z,9.99
2023-03-20T04:56:53.000Z,9.98
2023-03-20T04:57:53.000Z,10.01
2023-03-20T04:58:53.000Z,9.99
2023-03-20T04:59:53.000Z,10.02
2023-03-20T05:00:53.000Z,10.01
2023-03-20T05:01:53.000Z,10.02
2023-03-20T05:02:53.000Z,9.99
2023-03-20T05:03:53.000Z,9.95
2023-03-20T05:04:53.000Z,9.96
2023-03-20T05:05:53.000Z,9.96
2023-03-20T05:06:53.000Z,9.96
2023-03-20T05:07:53.000Z,9.92
2023-03-20T05:08:53.000Z,9.91
2023-03-20T05:09:53.000Z,9.91
2023-03-20T05:10:53.000Z,9.91
2023-03-20T05:11:53.000Z,9.88
2023-03-20T05:12:53.000Z,9.91
2023-03-20T05:13:53.000Z,9.89
2023-03-20T05:14:53.000Z,9.91
2023-03-20T05:15:53.000Z,9.89
2023-03-20T05:16:53.000Z,9.92
2023-03-20T05:17:53.000Z,9.89
2023-03-20T05:18:53.000Z,9.89
2023-03-20T05:19:53.000Z,9.91
2023-03-20T05:20:53.000Z,9.91
2023-03-20T05:21:53.000Z,9.92
2023-03-20T05:22:53.000Z,9.91
2023-03-20T05:23:53.000Z,9.89
2023-03-20T05:24:53.000Z,9.91
2023-03-20T05:25:53.000Z,9.91
2023-03-20T05:26:53.000Z,9.91
2023-03-20T05:27:53.000Z,9.89
2023-03-20T05:28:53.000Z,9.89
2023-03-20T05:29:53.000Z,9.93
2023-03-20T05:30:53.000Z,9.93
2023-03-20T05:31:53.000Z,9.95
2023-03-20T05:32:53.000Z,9.96
2023-03-20T05:33:53.000Z,9.96
2023-03-20T05:34:53.000Z,9.93
2023-03-20T05:35:53.000Z,9.96
2023-03-20T05:36:53.000Z,9.99
2023-03-20T05:37:53.000Z,10.01
2023-03-20T05:38:53.000Z,9.99
2023-03-20T05:39:53.000Z,10.01
2023-03-20T05:40:52.000Z,10.01
2023-03-20T05:41:52.000Z,10.01
2023-03-20T05:42:52.000Z,10.04
2023-03-20T05:43:52.000Z,10.06
2023-03-20T05:44:52.000Z,10.07
2023-03-20T05:45:52.000Z,10.06
2023-03-20T05:46:52.000Z,10.06
2023-03-20T05:47:52.000Z,10.10
2023-03-20T05:48:52.000Z,10.11
2023-03-20T05:49:52.000Z,10.09
2023-03-20T05:50:52.000Z,10.09
2023-03-20T05:51:52.000Z,10.09
2023-03-20T05:52:52.000Z,10.11
2023-03-20T05:53:52.000Z,10.13
2023-03-20T05:54:52.000Z,10.13
2023-03-20T05:55:52.000Z,10.13
2023-03-20T05:56:52.000Z,10.16
2023-03-20T05:57:52.000Z,10.14
2023-03-20T05:58:52.000Z,10.16
2023-03-20T05:59:52.000Z,10.17
2023-03-20T06:00:52.000Z,10.14
2023-03-20T06:01:52.000Z,10.17
2023-03-20T06:02:52.000Z,10.17
2023-03-20T06:03:52.000Z,10.14
2023-03-20T06:04:52.000Z,10.17
2023-03-20T06:05:52.000Z,10.18
2023-03-20T06:06:52.000Z,10.22
2023-03-20T06:07:52.000Z,10.20
2023-03-20T06:08:52.000Z,10.20
2023-03-20T06:09:52.000Z,10.24
2023-03-20T06:10:52.000Z,10.26
2023-03-20T06:11:52.000Z,10.25
2023-03-20T06:12:52.000Z,10.22
2023-03-20T06:13:52.000Z,10.25
2023-03-20T06:14:52.000Z,10.25
2023-03-20T06:15:52.000Z,10.25
2023-03-20T06:16:52.000Z,10.29
2023-03-20T06:17:52.000Z,10.29
2023-03-20T06:18:52.000Z,10.29
2023-03-20T06:19:52.000Z,10.28
2023-03-20T06:20:52.000Z,10.32
2023-03-20T06:21:52.000Z,10.31
2023-03-20T06:22:52.000Z,10.32
2023-03-20T06:23:52.000Z,10.34
2023-03-20T06:24:52.000Z,10.35
2023-03-20T06:25:52.000Z,10.35
2023-03-20T06:26:52.000Z,10.35
2023-03-20T06:27:52.000Z,10.38
2023-03-20T06:28:52.000Z,10.39
2023-03-20T06:29:52.000Z,10.39
2023-03-20T06:30:52.000Z,10.42
2023-03-20T06:31:52.000Z,10.42
2023-03-20T06:32:52.000Z,10.39
2023-03-20T06:33:52.000Z,10.44
2023-03-20T06:34:52.000Z,10.44
2023-03-20T06:35:52.000Z,10.46
2023-03-20T06:36:52.000Z,10.46
2023-03-20T06:37:52.000Z,10.44
2023-03-20T06:38:52.000Z,10.46
2023-03-20T06:39:52.000Z,10.46
2023-03-20T06:40:52.000Z,10.49
2023-03-20T06:41:52.000Z,10.47
2023-03-20T06:42:52.000Z,10.52
2023-03-20T06:43:52.000Z,10.54
2023-03-20T06:44:52.000Z,10.55
2023-03-20T06:45:52.000Z,10.57
2023-03-20T06:46:52.000Z,10.58
2023-03-20T06:47:52.000Z,10.60
2023-03-20T06:48:52.000Z,10.60
2023-03-20T06:49:52.000Z,10.69
2023-03-20T06:50:52.000Z,10.68
2023-03-20T06:51:52.000Z,10.69
2023-03-20T06:52:52.000Z,10.73
2023-03-20T06:53:52.000Z,10.75
2023-03-20T06:54:52.000Z,10.76
2023-03-20T06:55:52.000Z,10.80
2023-03-20T06:56:52.000Z,10.76
2023-03-20T06:57:52.000Z,10.80
2023-03-20T06:58:52.000Z,10.80
2023-03-20T06:59:52.000Z,10.81
2023-03-20T07:00:52.000Z,10.84
2023-03-20T07:01:52.000Z,10.83
2023-03-20T07:02:52.000Z,10.86
2023-03-20T07:03:52.000Z,10.88
2023-03-20T07:04:52.000Z,10.90
2023-03-20T07:05:52.000Z,10.93
2023-03-20T07:06:52.000Z,10.93
2023-03-20T07:07:52.000Z,10.94
2023-03-20T07:08:52.000Z,10.95
2023-03-20T07:09:52.000Z,10.93
2023-03-20T07:10:52.000Z,10.95
2023-03-20T07:11:52.000Z,11.01
2023-03-20T07:12:52.000Z,11.01
2023-03-20T07:13:52.000Z,11.02
2023-03-20T07:14:52.000Z,11.02
2023-03-20T07:15:52.000Z,11.03
2023-03-20T07:16:52.000Z,11.02
2023-03-20T07:17:52.000Z,11.02
2023-03-20T07:18:52.000Z,11.03
2023-03-20T07:19:52.000Z,11.02
2023-03-20T07:20:52.000Z,11.03
2023-03-20T07:21:52.000Z,11.02
2023-03-20T07:22:52.000Z,11.03
2023-03-20T07:23:51.000Z,11.05
2023-03-20T07:24:51.000Z,11.06
2023-03-20T07:25:51.000Z,11.08
2023-03-20T07:26:51.000Z,11.06
2023-03-20T07:27:51.000Z,11.05
2023-03-20T07:28:51.000Z,11.06
2023-03-20T07:29:51.000Z,11.03
2023-03-20T07:30:51.000Z,11.08
2023-03-20T07:31:51.000Z,11.09
2023-03-20T07:32:51.000Z,11.12
2023-03-20T07:33:51.000Z,11.11
2023-03-20T07:34:51.000Z,11.13
2023-03-20T07:35:51.000Z,11.16
2023-03-20T07:36:51.000Z,11.20
2023-03-20T07:37:51.000Z,11.20
2023-03-20T07:38:51.000Z,11.20
2023-03-20T07:39:51.000Z,11.21
2023-03-20T07:40:51.000Z,11.23
2023-03-20T07:41:51.000Z,11.26
2023-03-20T07:42:51.000Z,11.23
2023-03-20T07:43:51.000Z,11.27
2023-03-20T07:44:51.000Z,11.26
2023-03-20T07:45:51.000Z,11.27
2023-03-20T07:46:51.000Z,11.28
2023-03-20T07:47:51.000Z,11.30
2023-03-20T07:48:51.000Z,11.35
2023-03-20T07:49:51.000Z,11.35
2023-03-20T07:50:51.000Z,11.38
2023-03-20T07:51:51.000Z,11.42
2023-03-20T07:52:51.000Z,11.42
2023-03-20T07:53:51.000Z,11.44
2023-03-20T07:54:51.000Z,11.45
2023-03-20T07:55:51.000Z,11.45
2023-03-20T07:56:51.000Z,11.48
2023-03-20T07:57:51.000Z,11.49
2023-03-20T07:58:51.000Z,11.49
2023-03-20T07:59:51.000Z,11.54
2023-03-20T08:00:51.000Z,11.54
2023-03-20T08:01:51.000Z,11.53
2023-03-20T08:02:51.000Z,11.56
2023-03-20T08:03:51.000Z,11.59
2023-03-20T08:04:51.000Z,11.60
2023-03-20T08:05:51.000Z,11.59
2023-03-20T08:06:51.000Z,11.60
2023-03-20T08:07:51.000Z,11.60
2023-03-20T08:08:51.000Z,11.63
2023-03-20T08:09:51.000Z,11.64
2023-03-20T08:10:51.000Z,11.62
2023-03-20T08:11:51.000Z,11.62
2023-03-20T08:11:51.000Z,11.62
2023-03-20T08:12:51.000Z,11.64
2023-03-20T08:12:51.000Z,11.64
2023-03-20T08:13:51.000Z,11.67
2023-03-20T08:13:51.000Z,11.67
2023-03-20T08:14:51.000Z,11.72
2023-03-20T08:14:51.000Z,11.72
2023-03-20T08:15:51.000Z,11.75
2023-03-20T08:15:51.000Z,11.75
2023-03-20T08:16:51.000Z,11.81
2023-03-20T08:17:51.000Z,11.85
2023-03-20T08:18:51.000Z,11.93
2023-03-20T08:19:51.000Z,11.96
2023-03-20T08:20:51.000Z,12.00
2023-03-20T08:21:51.000Z,12.03
2023-03-20T08:22:51.000Z,12.07
2023-03-20T08:23:51.000Z,12.07
2023-03-20T08:24:51.000Z,12.11
2023-03-20T08:25:51.000Z,12.12
2023-03-20T08:26:51.000Z,12.15
2023-03-20T08:27:51.000Z,12.18
2023-03-20T08:28:51.000Z,12.21
2023-03-20T08:29:51.000Z,12.26
2023-03-20T08:30:51.000Z,12.30
2023-03-20T08:31:51.000Z,12.33
2023-03-20T08:32:51.000Z,12.31
2023-03-20T08:33:51.000Z,12.30
2023-03-20T08:34:51.000Z,12.30
2023-03-20T08:35:51.000Z,12.34
2023-03-20T08:36:51.000Z,12.40
2023-03-20T08:37:51.000Z,12.43
2023-03-20T08:38:51.000Z,12.44
2023-03-20T08:39:51.000Z,12.44
2023-03-20T08:40:51.000Z,12.41
2023-03-20T08:41:51.000Z,12.41
2023-03-20T08:42:51.000Z,12.43
2023-03-20T08:43:51.000Z,12.44
2023-03-20T08:44:51.000Z,12.41
2023-03-20T08:45:51.000Z,12.40
2023-03-20T08:46:51.000Z,12.38
2023-03-20T08:47:51.000Z,12.37
2023-03-20T08:48:51.000Z,12.37
2023-03-20T08:49:51.000Z,12.37
2023-03-20T08:50:51.000Z,12.33
2023-03-20T08:51:51.000Z,12.31
2023-03-20T08:52:51.000Z,12.31
2023-03-20T08:53:51.000Z,12.36
2023-03-20T08:54:51.000Z,12.37
2023-03-20T08:55:51.000Z,12.36
2023-03-20T08:56:51.000Z,12.40
2023-03-20T08:57:51.000Z,12.40
2023-03-20T08:58:51.000Z,12.41
2023-03-20T08:59:51.000Z,12.41
2023-03-20T09:00:51.000Z,12.43
2023-03-20T09:01:51.000Z,12.41
2023-03-20T09:02:51.000Z,12.44
2023-03-20T09:03:50.000Z,12.40
2023-03-20T09:04:50.000Z,12.40
2023-03-20T09:05:50.000Z,12.43
2023-03-20T09:06:50.000Z,12.40
2023-03-20T09:07:50.000Z,12.38
2023-03-20T09:08:50.000Z,12.38
2023-03-20T09:09:50.000Z,12.36
2023-03-20T09:10:50.000Z,12.37
2023-03-20T09:11:50.000Z,12.36
2023-03-20T09:12:50.000Z,12.38
2023-03-20T09:13:50.000Z,12.38
2023-03-20T09:14:50.000Z,12.31
2023-03-20T09:15:50.000Z,12.33
2023-03-20T09:16:50.000Z,12.31
2023-03-20T09:17:50.000Z,12.31
2023-03-20T09:18:50.000Z,12.26
2023-03-20T09:19:50.000Z,12.29
2023-03-20T09:20:50.000Z,12.25
2023-03-20T09:21:50.000Z,12.25
2023-03-20T09:22:50.000Z,12.22
2023-03-20T09:23:50.000Z,12.22
2023-03-20T09:24:50.000Z,12.21
2023-03-20T09:25:50.000Z,12.19
2023-03-20T09:26:50.000Z,12.22
2023-03-20T09:27:50.000Z,12.18
2023-03-20T09:28:50.000Z,12.19
2023-03-20T09:29:50.000Z,12.18
2023-03-20T09:30:50.000Z,12.15
2023-03-20T09:31:50.000Z,12.11
2023-03-20T09:32:50.000Z,12.12
2023-03-20T09:33:50.000Z,12.07
2023-03-20T09:34:50.000Z,12.08
2023-03-20T09:35:50.000Z,12.07
2023-03-20T09:36:50.000Z,12.07
2023-03-20T09:37:50.000Z,12.05
2023-03-20T09:38:50.000Z,12.07
2023-03-20T09:39:50.000Z,12.07
2023-03-20T09:40:50.000Z,12.08
2023-03-20T09:41:50.000Z,12.08
2023-03-20T09:41:50.000Z,12.08
2023-03-20T09:42:50.000Z,12.05
2023-03-20T09:42:50.000Z,12.05
2023-03-20T09:43:50.000Z,12.11
2023-03-20T09:43:50.000Z,12.11
2023-03-20T09:44:50.000Z,12.07
2023-03-20T09:44:50.000Z,12.07
2023-03-20T09:45:50.000Z,12.08
2023-03-20T09:45:50.000Z,12.08
2023-03-20T09:46:50.000Z,12.05
2023-03-20T09:47:50.000Z,12.08
2023-03-20T09:48:50.000Z,12.04
2023-03-20T09:49:50.000Z,12.11
2023-03-20T09:50:50.000Z,12.08
2023-03-20T09:51:50.000Z,12.11
2023-03-20T09:52:50.000Z,12.11
2023-03-20T09:53:50.000Z,12.11
2023-03-20T09:54:50.000Z,12.11
2023-03-20T09:55:50.000Z,12.12
2023-03-20T09:56:50.000Z,12.13
2023-03-20T09:57:50.000Z,12.13
2023-03-20T09:58:50.000Z,12.16
2023-03-20T09:59:50.000Z,12.15
2023-03-20T10:00:50.000Z,12.12
2023-03-20T10:01:50.000Z,12.12
2023-03-20T10:02:50.000Z,12.12
2023-03-20T10:03:50.000Z,12.15
2023-03-20T10:04:50.000Z,12.13
2023-03-20T10:05:50.000Z,12.13
2023-03-20T10:06:50.000Z,12.16
2023-03-20T10:07:50.000Z,12.18
2023-03-20T10:08:50.000Z,12.16
2023-03-20T10:09:50.000Z,12.18
2023-03-20T10:10:50.000Z,12.19
2023-03-20T10:11:50.000Z,12.22
2023-03-20T10:12:50.000Z,12.23
2023-03-20T10:13:50.000Z,12.23
2023-03-20T10:14:50.000Z,12.26
2023-03-20T10:15:50.000Z,12.29
2023-03-20T10:16:50.000Z,12.29
2023-03-20T10:17:50.000Z,12.31
2023-03-20T10:18:50.000Z,12.33
2023-03-20T10:19:50.000Z,12.36
2023-03-20T10:20:50.000Z,12.36
2023-03-20T10:21:50.000Z,12.37
2023-03-20T10:22:50.000Z,12.36
2023-03-20T10:23:50.000Z,12.34
2023-03-20T10:24:50.000Z,12.34
2023-03-20T10:25:50.000Z,12.36
2023-03-20T10:26:50.000Z,12.34
2023-03-20T10:27:50.000Z,12.36
2023-03-20T10:28:50.000Z,12.37
2023-03-20T10:29:50.000Z,12.37
2023-03-20T10:30:50.000Z,12.38
2023-03-20T10:31:50.000Z,12.37
2023-03-20T10:32:50.000Z,12.37
2023-03-20T10:33:50.000Z,12.38
2023-03-20T10:34:50.000Z,12.40
2023-03-20T10:35:50.000Z,12.38
2023-03-20T10:36:50.000Z,12.37
2023-03-20T10:37:50.000Z,12.37
2023-03-20T10:38:50.000Z,12.34
2023-03-20T10:39:50.000Z,12.34
2023-03-20T10:40:50.000Z,12.34
2023-03-20T10:41:50.000Z,12.33
2023-03-20T10:42:50.000Z,12.34
2023-03-20T10:43:49.000Z,12.33
2023-03-20T10:44:49.000Z,12.30
2023-03-20T10:45:49.000Z,12.30
2023-03-20T10:46:49.000Z,12.33
2023-03-20T10:47:49.000Z,12.33
2023-03-20T10:48:49.000Z,12.29
2023-03-20T10:49:49.000Z,12.33
2023-03-20T10:50:49.000Z,12.30
2023-03-20T10:51:49.000Z,12.29
2023-03-20T10:52:49.000Z,12.30
2023-03-20T10:53:49.000Z,12.29
2023-03-20T10:54:49.000Z,12.25
2023-03-20T10:55:49.000Z,12.26
2023-03-20T10:56:49.000Z,12.29
2023-03-20T10:57:49.000Z,12.26
2023-03-20T10:58:49.000Z,12.29
2023-03-20T10:59:49.000Z,12.23
2023-03-20T11:00:49.000Z,12.25
2023-03-20T11:01:49.000Z,12.29
2023-03-20T11:02:49.000Z,12.29
2023-03-20T11:03:49.000Z,12.26
2023-03-20T11:04:49.000Z,12.30
2023-03-20T11:05:49.000Z,12.29
2023-03-20T11:06:49.000Z,12.30
2023-03-20T11:07:49.000Z,12.30
2023-03-20T11:08:49.000Z,12.26
2023-03-20T11:09:49.000Z,12.29
2023-03-20T11:10:49.000Z,12.23
2023-03-20T11:11:49.000Z,12.26
2023-03-20T11:12:49.000Z,12.26
2023-03-20T11:13:49.000Z,12.25
2023-03-20T11:14:49.000Z,12.23
2023-03-20T11:15:49.000Z,12.22
2023-03-20T11:16:49.000Z,12.21
2023-03-20T11:17:49.000Z,12.19
2023-03-20T11:18:49.000Z,12.21
2023-03-20T11:19:49.000Z,12.19
2023-03-20T11:20:49.000Z,12.15
2023-03-20T11:21:49.000Z,12.15
2023-03-20T11:22:49.000Z,12.13
2023-03-20T11:23:49.000Z,12.13
2023-03-20T11:24:49.000Z,12.11
2023-03-20T11:25:49.000Z,12.13
2023-03-20T11:26:49.000Z,12.12
2023-03-20T11:27:49.000Z,12.11
2023-03-20T11:28:49.000Z,12.11
2023-03-20T11:29:49.000Z,12.11
2023-03-20T11:30:49.000Z,12.05
2023-03-20T11:31:49.000Z,12.05
2023-03-20T11:31:49.000Z,12.05
2023-03-20T11:32:49.000Z,12.07
2023-03-20T11:32:49.000Z,12.07
2023-03-20T11:33:49.000Z,12.07
2023-03-20T11:33:49.000Z,12.07
2023-03-20T11:34:49.000Z,12.08
2023-03-20T11:34:49.000Z,12.08
2023-03-20T11:35:49.000Z,12.07
2023-03-20T11:35:49.000Z,12.07
2023-03-20T11:36:49.000Z,12.05
2023-03-20T11:37:49.000Z,12.07
2023-03-20T11:38:49.000Z,12.11
2023-03-20T11:39:49.000Z,12.08
2023-03-20T11:40:49.000Z,12.08
2023-03-20T11:41:49.000Z,12.11
2023-03-20T11:42:49.000Z,12.12
2023-03-20T11:43:49.000Z,12.13
2023-03-20T11:44:49.000Z,12.16
2023-03-20T11:45:49.000Z,12.22
2023-03-20T11:46:49.000Z,12.23
2023-03-20T11:47:49.000Z,12.33
2023-03-20T11:48:49.000Z,12.38
2023-03-20T11:49:49.000Z,12.43
2023-03-20T11:50:49.000Z,12.41
2023-03-20T11:51:49.000Z,12.43
2023-03-20T11:52:49.000Z,12.43
2023-03-20T11:53:49.000Z,12.40
2023-03-20T11:54:49.000Z,12.44
2023-03-20T11:55:49.000Z,12.44
2023-03-20T11:56:49.000Z,12.44
2023-03-20T11:57:49.000Z,12.46
2023-03-20T11:58:49.000Z,12.46
2023-03-20T11:59:49.000Z,12.46
2023-03-20T12:00:49.000Z,12.48
2023-03-20T12:01:49.000Z,12.46
2023-03-20T12:02:49.000Z,12.52
2023-03-20T12:03:49.000Z,12.51
2023-03-20T12:04:49.000Z,12.52
2023-03-20T12:05:49.000Z,12.54
2023-03-20T12:06:49.000Z,12.52
2023-03-20T12:07:49.000Z,12.52
2023-03-20T12:08:49.000Z,12.49
2023-03-20T12:09:49.000Z,12.46
2023-03-20T12:10:49.000Z,12.46
2023-03-20T12:11:49.000Z,12.46
2023-03-20T12:12:49.000Z,12.48
2023-03-20T12:13:49.000Z,12.48
2023-03-20T12:14:49.000Z,12.51
2023-03-20T12:15:49.000Z,12.51
2023-03-20T12:16:49.000Z,12.54
2023-03-20T12:17:49.000Z,12.55
2023-03-20T12:18:49.000Z,12.55
2023-03-20T12:19:49.000Z,12.56
2023-03-20T12:20:49.000Z,12.59
2023-03-20T12:21:49.000Z,12.56
2023-03-20T12:22:48.000Z,12.56
2023-03-20T12:23:48.000Z,12.61
2023-03-20T12:24:48.000Z,12.62
2023-03-20T12:25:48.000Z,12.67
2023-03-20T12:26:48.000Z,12.69
2023-03-20T12:27:48.000Z,12.69
2023-03-20T12:28:48.000Z,12.69
2023-03-20T12:29:48.000Z,12.71
2023-03-20T12:30:48.000Z,12.70
2023-03-20T12:31:48.000Z,12.70
2023-03-20T12:32:48.000Z,12.70
2023-03-20T12:33:48.000Z,12.70
2023-03-20T12:34:48.000Z,12.71
2023-03-20T12:35:48.000Z,12.71
2023-03-20T12:36:48.000Z,12.67
2023-03-20T12:37:48.000Z,12.67
2023-03-20T12:38:48.000Z,12.67
2023-03-20T12:39:48.000Z,12.67
2023-03-20T12:40:48.000Z,12.66
2023-03-20T12:41:48.000Z,12.62
2023-03-20T12:42:48.000Z,12.59